ADDS METAR Data INFO
IDs: Format: Raw Decoded Include TAF

Data at: 1336 UTC 23 Jun 2018

KSKX 231256Z AUTO 36005KT 10SM CLR 13/M09 A3014 RMK AO2 SLP121 T01281094 $
KSKX 231156Z AUTO VRB04KT 10SM CLR 09/M10 A3014 RMK AO2 SLP127 T00891100 10167 20089 53011 $
KSKX 231056Z AUTO 07005KT 10SM CLR 11/M09 A3012 RMK AO2 SLP115 T01061089 $
KSKX 230956Z AUTO 04004KT 10SM CLR 11/M09 A3011 RMK AO2 SLP109 T01111094 $
KSKX 230856Z AUTO 02004KT 10SM CLR 09/M13 A3010 RMK AO2 SLP108 T00941128 53001 $
KSKX 230756Z AUTO 08006KT 10SM CLR 16/M11 A3009 RMK AO2 SLP095 T01561111 $
KSKX 230656Z AUTO 36005KT 10SM CLR 14/M12 A3010 RMK AO2 SLP100 T01391117 403330094 $
KSKX 230556Z AUTO VRB05KT 10SM CLR 16/M12 A3010 RMK AO2 SLP096 T01611122 10311 20156 51008 $
KSKX 230456Z AUTO 28007KT 10SM CLR 16/M13 A3008 RMK AO2 SLP095 T01611133 $
KSKX 230356Z AUTO 00000KT 10SM CLR 23/M13 A3008 RMK AO2 SLP086 T02281128 $
KSKX 230256Z AUTO 33010KT 10SM CLR 23/M13 A3006 RMK AO2 SLP085 T02331128 53011 $
KSKX 230156Z AUTO 30014G22KT 10SM CLR 28/M12 A3005 RMK AO2 PK WND 30026/0107 SLP077 T02781122 $
KSKX 230056Z AUTO 30016G26KT 10SM CLR 30/M11 A3003 RMK AO2 PK WND 31031/0000 SLP079 T03001111 $
KSKX 222356Z AUTO 31017G28KT 10SM CLR 31/M11 A3002 RMK AO2 PK WND 29033/2258 SLP079 T03111106 10333 20306 56011 $
KSKX 222256Z AUTO 28021G29KT 10SM CLR 32/M11 A3003 RMK AO2 PK WND 28034/2230 SLP080 T03221111 $
KSKX 222156Z AUTO 27023G36KT 10SM CLR 33/M12 A3004 RMK AO2 PK WND 27037/2124 SLP081 T03281117 $
KSKX 222056Z AUTO 27021G34KT 10SM CLR 33/M11 A3006 RMK AO2 PK WND 26038/2020 SLP086 T03281111 58021 $
KSKX 222027Z AUTO 25020G38KT 10SM SQ CLR 32/M11 A3007 RMK AO2 PK WND 26038/2020 TSNO $
KSKX 221956Z AUTO 29016G28KT 10SM CLR 32/M11 A3009 RMK AO2 PK WND 28028/1951 SLP102 T03171106 $
KSKX 221756Z AUTO 26020G27KT 10SM CLR 31/M08 A3014 RMK AO2 PK WND 22027/1752 SLP109 T03111078 10311 20094 58018 $
KSKX 221656Z AUTO 26016G19KT 10SM CLR 29/M04 A3017 RMK AO2 SLP118 T02891044 $
KSKX 221556Z AUTO 22013KT 10SM CLR 27/M02 A3019 RMK AO2 SLP125 T02721017 $
KSKX 221456Z AUTO 22011G15KT 10SM CLR 24/01 A3021 RMK AO2 SLP135 T02440006 50008 TSNO $
KSKX 221356Z AUTO 01003KT 10SM CLR 21/M06 A3021 RMK AO2 SLP131 T02061056 $
KSKX 221256Z AUTO 35005KT 10SM CLR 14/M07 A3019 RMK AO2 SLP135 T01441072 $
KSKX 221156Z AUTO 33003KT 10SM CLR 12/M08 A3017 RMK AO2 SLP132 T01171078 10172 20094 56003 $
KSKX 221056Z AUTO 36005KT 10SM CLR 11/M09 A3017 RMK AO2 SLP132 T01061094 $
KSKX 220956Z AUTO 00000KT 10SM CLR 13/M08 A3018 RMK AO2 SLP135 T01281083 $
KSKX 220856Z AUTO VRB03KT 10SM CLR 14/M09 A3018 RMK AO2 SLP134 T01391089 58002 $
KSKX 220756Z AUTO VRB03KT 10SM CLR 12/M08 A3019 RMK AO2 SLP140 T01221083 $
KSKX 220656Z AUTO 11005KT 10SM CLR 14/M09 A3019 RMK AO2 SLP139 T01441089 403220111 $
KSKX 220556Z AUTO 10010KT 10SM CLR 17/M09 A3019 RMK AO2 SLP139 T01721089 10317 20161 50002 $
KSKX 220456Z AUTO 08007KT 10SM CLR 21/M10 A3020 RMK AO2 SLP137 T02111100 $
KSKX 220356Z AUTO 12004KT 10SM CLR 22/M12 A3020 RMK AO2 SLP140 T02171117 $
KSKX 220256Z AUTO 28007KT 10SM CLR 23/M13 A3019 RMK AO2 SLP134 T02281128 53002 $
KSKX 220156Z AUTO 25013KT 10SM CLR 29/M03 A3017 RMK AO2 SLP125 T02891028 $